Time;durP1;ratioP1;P1;durP2;ratioP2;P2;SDS_P1;SDS_P2;PMS_P1;PMS_P2;Temp;Humidity;BMP_temperature;BMP_pressure;BME280_temperature;BME280_humidity;BME280_pressure;Samples;Min_cycle;Max_cycle;Signal;HPM_P1;HPM_P2
2021/12/17 00:01:06;;;;;;;;;;;;;;;5.15;100.00;99625.49;1693961;82;24488;-84
2021/12/17 00:03:42;;;;;;;;;;;;;;;5.16;100.00;99622.01;1726941;81;20183;-84
2021/12/17 00:06:15;;;;;;;;;;;;;;;5.17;100.00;99622.86;1709590;83;24983;-84
2021/12/17 00:08:37;;;;;;;;;;;;;;;5.16;100.00;99621.16;1703810;83;22120;-84
2021/12/17 00:11:04;;;;;;;;;;;;;;;5.14;100.00;99626.38;1766029;80;26043;-85
2021/12/17 00:13:30;;;;;;;;;;;;;;;5.11;100.00;99627.78;1776006;80;24388;-84
2021/12/17 00:15:56;;;;;;;;;;;;;;;5.11;100.00;99640.75;1781255;79;20214;-84
2021/12/17 00:18:29;;;;;;;;;;;;;;;5.11;100.00;99648.98;1780518;80;24957;-84
2021/12/17 00:40:21;;;;;;;;;;;;;;;5.10;100.00;99645.98;1777126;80;22646;-84
2021/12/17 00:51:37;;;;;;;;;;;;;;;5.13;100.00;99636.83;1775349;80;26061;-84
2021/12/17 00:53:27;;;;;;;;;;;;;;;5.16;99.97;99639.31;1720520;82;24433;-85
2021/12/17 00:55:53;;;;;;;;;;;;;;;5.17;99.96;99644.91;1731500;81;20425;-84
2021/12/17 00:58:19;;;;;;;;;;;;;;;5.15;99.93;99638.91;1708481;83;25867;-84
2021/12/17 01:00:45;;;;;;;;;;;;;;;5.15;99.89;99647.55;1702153;83;22083;-84
2021/12/17 01:03:16;;;;;;;;;;;;;;;5.17;99.87;99643.62;1725610;81;26112;-84
2021/12/17 01:05:40;;;;;;;;;;;;;;;5.17;99.86;99634.09;1707502;83;24739;-84
2021/12/17 01:08:06;;;;;;;;;;;;;;;5.18;99.85;99633.65;1724019;82;20350;-84
2021/12/17 01:10:34;;;;;;;;;;;;;;;5.20;99.84;99632.69;1704399;83;20655;-84
2021/12/17 01:13:00;;;;;;;;;;;;;;;5.16;99.79;99637.58;1703056;83;22752;-84
2021/12/17 01:15:32;;;;;;;;;;;;;;;5.20;99.82;99637.88;1729485;82;26167;-84
2021/12/17 01:18:04;;;;;;;;;;;;;;;5.23;99.84;99637.81;1735139;82;24173;-84
2021/12/17 01:23:09;;;;;;;;;;;;;;;5.29;99.88;99640.20;1712987;82;25062;-84
2021/12/17 01:25:42;;;;;;;;;;;;;;;5.24;99.80;99647.27;1717618;82;22072;-84
2021/12/17 01:36:16;;;;;;;;;;;;;;;5.20;99.72;99657.79;1706165;83;25001;-84
2021/12/17 01:44:15;;;;;;;;;;;;;;;5.19;99.69;99641.81;1700474;83;24673;-83
2021/12/17 01:46:41;;;;;;;;;;;;;;;5.18;99.68;99631.91;1773533;80;20368;-85
2021/12/17 01:59:20;;;;;;;;;;;;;;;5.09;99.66;99613.13;1776061;80;25095;-84
2021/12/17 01:59:36;;;;;;;;;;;;;;;5.10;99.71;99623.48;1726986;82;20370;-84
2021/12/17 02:02:01;;;;;;;;;;;;;;;5.14;99.76;99621.63;1706328;83;25050;-84
2021/12/17 02:04:28;;;;;;;;;;;;;;;5.11;99.75;99612.21;1723780;82;23612;-84
2021/12/17 02:06:55;;;;;;;;;;;;;;;5.15;99.80;99617.70;1775235;80;26183;-84
2021/12/17 02:20:39;;;;;;;;;;;;;;;5.04;99.76;99619.76;1679330;85;26086;-84
2021/12/17 02:23:22;;;;;;;;;;;;;;;5.07;99.81;99624.88;1689034;84;25155;-84
2021/12/17 02:33:32;;;;;;;;;;;;;;;5.19;100.00;99623.20;1722903;81;26073;-84
2021/12/17 02:36:00;;;;;;;;;;;;;;;5.22;100.00;99620.98;1701663;82;24440;-84
2021/12/17 02:38:29;;;;;;;;;;;;;;;5.22;100.00;99623.12;1727824;82;20188;-84
2021/12/17 02:46:25;;;;;;;;;;;;;;;5.12;100.00;99611.32;1701542;83;26724;-84
2021/12/17 02:48:52;;;;;;;;;;;;;;;5.12;100.00;99610.03;1732814;81;24451;-84
2021/12/17 02:51:19;;;;;;;;;;;;;;;5.06;100.00;99610.20;1688249;83;20280;-84
2021/12/17 02:53:45;;;;;;;;;;;;;;;5.00;100.00;99612.52;1705214;83;25075;-84
2021/12/17 02:56:11;;;;;;;;;;;;;;;4.96;100.00;99611.36;1701319;83;20404;-84
2021/12/17 02:58:38;;;;;;;;;;;;;;;4.96;99.99;99615.25;1732196;82;25980;-84
2021/12/17 03:01:06;;;;;;;;;;;;;;;4.95;99.96;99609.66;1707761;82;25220;-83
2021/12/17 03:03:33;;;;;;;;;;;;;;;4.97;99.97;99618.22;1701175;84;20310;-84
2021/12/17 03:06:00;;;;;;;;;;;;;;;4.92;99.92;99614.47;1719884;82;25994;-84
2021/12/17 03:08:29;;;;;;;;;;;;;;;4.89;99.89;99624.09;1717700;82;22036;-84
2021/12/17 03:10:55;;;;;;;;;;;;;;;4.88;99.88;99628.42;1705291;82;26040;-84
2021/12/17 03:13:27;;;;;;;;;;;;;;;4.85;99.83;99620.73;1709472;83;24629;-84
2021/12/17 03:15:57;;;;;;;;;;;;;;;4.85;99.78;99612.11;1719896;82;20287;-84
2021/12/17 03:23:40;;;;;;;;;;;;;;;4.80;99.71;99603.61;1716567;82;26911;-84
2021/12/17 03:26:08;;;;;;;;;;;;;;;4.79;99.71;99605.34;1717094;82;25351;-84
2021/12/17 03:28:34;;;;;;;;;;;;;;;4.79;99.67;99598.86;1704572;83;20205;-84
2021/12/17 03:31:00;;;;;;;;;;;;;;;4.79;99.65;99591.08;1709674;83;25638;-84
2021/12/17 03:33:27;;;;;;;;;;;;;;;4.81;99.66;99598.36;1721375;82;22020;-84
2021/12/17 03:35:53;;;;;;;;;;;;;;;4.83;99.65;99593.13;1725725;82;25974;-84
2021/12/17 03:38:19;;;;;;;;;;;;;;;4.84;99.61;99584.47;1713532;82;24595;-84
2021/12/17 03:40:46;;;;;;;;;;;;;;;4.86;99.60;99587.41;1782572;80;20243;-84
2021/12/17 03:43:21;;;;;;;;;;;;;;;4.85;99.59;99579.25;1780908;80;22463;-84
2021/12/17 03:45:42;;;;;;;;;;;;;;;4.83;99.53;99577.13;1779760;80;22006;-84
2021/12/17 03:48:09;;;;;;;;;;;;;;;4.79;99.51;99569.48;1773175;80;26015;-84
2021/12/17 03:50:36;;;;;;;;;;;;;;;4.76;99.47;99579.48;1775944;80;24509;-84
2021/12/17 03:53:06;;;;;;;;;;;;;;;4.73;99.46;99571.80;1777651;79;20140;-84
2021/12/17 03:55:32;;;;;;;;;;;;;;;4.73;99.45;99552.80;1776885;79;25662;-84
2021/12/17 03:57:59;;;;;;;;;;;;;;;4.68;99.42;99555.53;1776164;79;20238;-84
2021/12/17 04:00:26;;;;;;;;;;;;;;;4.65;99.36;99560.78;1755318;80;25944;-84
2021/12/17 04:02:59;;;;;;;;;;;;;;;4.61;99.32;99558.73;1777587;80;25379;-84
2021/12/17 04:05:23;;;;;;;;;;;;;;;4.61;99.30;99561.77;1776353;80;20316;-84
2021/12/17 04:07:50;;;;;;;;;;;;;;;4.57;99.27;99554.53;1777131;80;24999;-84
2021/12/17 04:10:18;;;;;;;;;;;;;;;4.57;99.22;99554.98;1774120;80;22848;-84
2021/12/17 04:15:15;;;;;;;;;;;;;;;4.57;99.19;99556.27;1731989;82;24656;-84
2021/12/17 04:17:52;;;;;;;;;;;;;;;4.57;99.18;99553.23;1714502;83;20256;-84
2021/12/17 04:20:13;;;;;;;;;;;;;;;4.58;99.17;99556.20;1694814;83;25024;-84
2021/12/17 04:22:43;;;;;;;;;;;;;;;4.58;99.17;99551.50;1760443;80;21943;-84
2021/12/17 04:25:07;;;;;;;;;;;;;;;4.57;99.19;99549.34;1716973;82;26029;-84
2021/12/17 04:27:33;;;;;;;;;;;;;;;4.57;99.17;99541.57;1715938;83;24530;-84
2021/12/17 04:29:59;;;;;;;;;;;;;;;4.54;99.16;99536.90;1702946;82;20343;-84
2021/12/17 04:32:25;;;;;;;;;;;;;;;4.54;99.16;99525.23;1713253;83;25067;-84
2021/12/17 04:34:51;;;;;;;;;;;;;;;4.54;99.16;99520.05;1707179;83;22056;-84
2021/12/17 04:37:17;;;;;;;;;;;;;;;4.52;99.13;99527.04;1723174;82;26049;-84
2021/12/17 04:39:43;;;;;;;;;;;;;;;4.53;99.13;99525.68;1730677;81;20284;-85
2021/12/17 04:42:18;;;;;;;;;;;;;;;4.53;99.14;99525.68;1704212;82;20375;-84
2021/12/17 04:44:48;;;;;;;;;;;;;;;4.54;99.14;99524.79;1730437;82;25038;-84
2021/12/17 04:58:01;;;;;;;;;;;;;;;4.65;99.18;99528.37;1772187;80;24995;-84
2021/12/17 05:03:22;;;;;;;;;;;;;;;4.67;99.18;99534.38;1747769;81;22277;-84
2021/12/17 05:05:48;;;;;;;;;;;;;;;4.64;99.22;99523.63;1741064;81;20319;-84
2021/12/17 05:08:17;;;;;;;;;;;;;;;4.64;99.23;99521.48;1748445;81;20209;-84
2021/12/17 05:19:02;;;;;;;;;;;;;;;4.64;99.38;99522.78;1746432;81;24580;-83
2021/12/17 05:21:23;;;;;;;;;;;;;;;4.63;99.41;99526.29;1746174;81;20263;-84
2021/12/17 05:23:51;;;;;;;;;;;;;;;4.65;99.43;99525.78;1745878;81;25235;-84
2021/12/17 05:26:17;;;;;;;;;;;;;;;4.67;99.48;99520.12;1749329;82;21993;-84
2021/12/17 05:28:43;;;;;;;;;;;;;;;4.66;99.49;99522.75;1693738;82;26045;-84
2021/12/17 05:31:11;;;;;;;;;;;;;;;4.64;99.53;99534.00;1659164;84;24417;-84
2021/12/17 05:33:37;;;;;;;;;;;;;;;4.53;99.51;99517.91;1685268;84;20296;-84
2021/12/17 05:36:05;;;;;;;;;;;;;;;4.61;99.56;99519.84;1638902;85;21135;-84
2021/12/17 05:38:31;;;;;;;;;;;;;;;4.58;99.56;99518.62;1719519;82;20384;-84
2021/12/17 05:40:57;;;;;;;;;;;;;;;4.60;99.57;99512.95;1742698;82;21136;-84
2021/12/17 05:43:23;;;;;;;;;;;;;;;4.60;99.58;99522.47;1743555;81;20248;-84
2021/12/17 05:48:27;;;;;;;;;;;;;;;4.60;99.63;99522.47;1747749;81;24962;-84
2021/12/17 05:50:58;;;;;;;;;;;;;;;4.62;99.66;99515.07;1742427;81;22002;-85
2021/12/17 05:53:25;;;;;;;;;;;;;;;4.59;99.69;99527.25;1747840;81;26071;-84
2021/12/17 05:55:51;;;;;;;;;;;;;;;4.60;99.68;99539.32;1743471;81;24420;-85
2021/12/17 05:58:17;;;;;;;;;;;;;;;4.60;99.71;99538.03;1747043;81;20301;-84
2021/12/17 06:00:44;;;;;;;;;;;;;;;4.60;99.71;99539.32;1693832;83;25001;-85
2021/12/17 06:03:10;;;;;;;;;;;;;;;4.61;99.71;99534.55;1700300;83;22224;-84
2021/12/17 06:05:36;;;;;;;;;;;;;;;4.63;99.72;99532.77;1671645;84;26035;-84
2021/12/17 06:08:03;;;;;;;;;;;;;;;4.66;99.74;99538.30;1695514;83;25331;-84
2021/12/17 06:10:29;;;;;;;;;;;;;;;4.68;99.75;99543.86;1677463;84;20312;-85
2021/12/17 06:12:55;;;;;;;;;;;;;;;4.70;99.78;99551.58;1681940;84;20740;-84
2021/12/17 06:15:21;;;;;;;;;;;;;;;4.68;99.76;99552.94;1680100;84;20258;-85
2021/12/17 06:17:48;;;;;;;;;;;;;;;4.67;99.76;99543.45;1706633;83;26890;-84
2021/12/17 06:20:15;;;;;;;;;;;;;;;4.66;99.75;99546.08;1641104;85;24487;-84
2021/12/17 06:22:41;;;;;;;;;;;;;;;4.64;99.71;99535.74;1744920;81;20193;-84
2021/12/17 06:25:08;;;;;;;;;;;;;;;4.63;99.72;99545.30;1740488;81;25220;-84
2021/12/17 06:27:35;;;;;;;;;;;;;;;4.61;99.67;99554.84;1734236;81;22175;-85
2021/12/17 06:30:02;;;;;;;;;;;;;;;4.59;99.64;99570.88;1742505;81;26794;-84
2021/12/17 06:32:28;;;;;;;;;;;;;;;4.60;99.61;99573.87;1691064;83;24471;-84
2021/12/17 06:34:54;;;;;;;;;;;;;;;4.62;99.61;99576.44;1688662;83;20251;-85
2021/12/17 06:37:26;;;;;;;;;;;;;;;4.61;99.57;99574.73;1682693;84;24690;-84
2021/12/17 06:39:52;;;;;;;;;;;;;;;4.56;99.51;99582.64;1689746;83;22266;-85
2021/12/17 06:42:20;;;;;;;;;;;;;;;4.56;99.46;99589.56;1660138;84;21416;-84
2021/12/17 06:44:47;;;;;;;;;;;;;;;4.53;99.43;99583.14;1682910;83;24517;-84
2021/12/17 06:47:37;;;;;;;;;;;;;;;4.52;99.35;99590.55;1747338;81;20168;-85
2021/12/17 06:49:55;;;;;;;;;;;;;;;4.53;99.34;99584.44;1745096;81;24987;-84
2021/12/17 07:00:23;;;;;;;;;;;;;;;4.58;99.36;99583.42;1745094;81;20218;-85
2021/12/17 07:10:42;;;;;;;;;;;;;;;4.55;99.24;99569.71;1728814;81;24482;-84
2021/12/17 07:31:21;;;;;;;;;;;;;;;4.60;98.98;99557.47;1738032;81;24653;-85
2021/12/17 07:34:09;;;;;;;;;;;;;;;4.62;98.94;99561.73;1721629;81;26061;-85
2021/12/17 07:36:55;;;;;;;;;;;;;;;4.63;98.88;99560.84;1742269;80;24457;-84
2021/12/17 07:39:07;;;;;;;;;;;;;;;4.64;98.87;99559.93;1739578;81;20479;-84
2021/12/17 07:41:34;;;;;;;;;;;;;;;4.63;98.83;99563.44;1745026;82;25031;-85
2021/12/17 07:44:01;;;;;;;;;;;;;;;4.62;98.81;99560.44;1746195;81;22112;-85
2021/12/17 07:46:34;;;;;;;;;;;;;;;4.64;98.78;99558.63;1746744;81;26034;-84
2021/12/17 07:49:01;;;;;;;;;;;;;;;4.63;98.75;99566.48;1745584;81;24935;-85
2021/12/17 07:51:28;;;;;;;;;;;;;;;4.62;98.72;99570.81;1745564;81;20508;-84
2021/12/17 07:53:56;;;;;;;;;;;;;;;4.64;98.71;99572.89;1702488;84;25595;-84
2021/12/17 07:56:23;;;;;;;;;;;;;;;4.66;98.70;99573.30;1677697;85;21967;-84
2021/12/17 07:58:49;;;;;;;;;;;;;;;4.66;98.68;99585.82;1676506;85;26017;-84
2021/12/17 08:01:15;;;;;;;;;;;;;;;4.64;98.67;99590.19;1703377;83;20276;-84
2021/12/17 08:03:42;;;;;;;;;;;;;;;4.63;98.65;99597.59;1674542;85;20234;-84
2021/12/17 08:06:08;;;;;;;;;;;;;;;4.62;98.62;99590.70;1682990;84;25007;-84
2021/12/17 08:08:34;;;;;;;;;;;;;;;4.66;98.62;99591.00;1685821;84;21924;-85
2021/12/17 08:11:01;;;;;;;;;;;;;;;4.68;98.63;99590.53;1676027;85;26034;-84
2021/12/17 08:13:32;;;;;;;;;;;;;;;4.67;98.58;99579.75;1747396;81;24456;-85
2021/12/17 08:31:50;;;;;;;;;;;;;;;4.70;98.37;99586.58;1747922;81;24973;-84
2021/12/17 08:34:18;;;;;;;;;;;;;;;4.73;98.35;99592.55;1743174;81;22107;-85
2021/12/17 08:36:48;;;;;;;;;;;;;;;4.76;98.34;99590.30;1744012;81;26891;-84
2021/12/17 08:39:14;;;;;;;;;;;;;;;4.78;98.32;99597.60;1747049;81;24409;-85
2021/12/17 08:41:41;;;;;;;;;;;;;;;4.82;98.33;99593.58;1747900;80;20218;-85
2021/12/17 08:44:13;;;;;;;;;;;;;;;4.88;98.35;99593.41;1740027;80;25053;-84
2021/12/17 08:46:36;;;;;;;;;;;;;;;4.93;98.35;99607.54;1741321;81;22089;-85
2021/12/17 08:49:03;;;;;;;;;;;;;;;4.96;98.37;99609.59;1746086;81;26058;-84
2021/12/17 08:51:30;;;;;;;;;;;;;;;5.02;98.39;99604.67;1748112;81;25294;-84
2021/12/17 08:53:59;;;;;;;;;;;;;;;5.06;98.40;99603.72;1746026;81;20266;-84
2021/12/17 08:56:28;;;;;;;;;;;;;;;5.08;98.44;99599.31;1742903;81;25066;-84
2021/12/17 08:58:54;;;;;;;;;;;;;;;5.06;98.44;99595.93;1741303;81;22080;-84
2021/12/17 09:01:28;;;;;;;;;;;;;;;5.07;98.38;99601.53;1738165;80;26962;-84
2021/12/17 09:03:54;;;;;;;;;;;;;;;5.11;98.36;99602.28;1746386;81;25128;-84
2021/12/17 09:06:24;;;;;;;;;;;;;;;5.03;98.32;99601.19;1743068;81;20290;-85
2021/12/17 09:08:49;;;;;;;;;;;;;;;4.99;98.24;99600.88;1744645;81;25820;-84
2021/12/17 09:11:15;;;;;;;;;;;;;;;4.95;98.17;99608.36;1742751;81;22035;-84
2021/12/17 09:13:41;;;;;;;;;;;;;;;4.93;98.11;99612.28;1747279;81;26264;-84
2021/12/17 09:16:07;;;;;;;;;;;;;;;4.94;98.08;99623.51;1745059;81;24502;-84
2021/12/17 09:18:37;;;;;;;;;;;;;;;4.93;98.00;99620.50;1745778;81;20324;-84
2021/12/17 09:21:03;;;;;;;;;;;;;;;4.94;97.94;99617.02;1744494;81;25689;-84
2021/12/17 09:23:30;;;;;;;;;;;;;;;4.93;97.92;99607.09;1740703;81;20172;-84
2021/12/17 09:25:56;;;;;;;;;;;;;;;4.89;97.84;99621.05;1745736;81;21104;-84
2021/12/17 09:28:22;;;;;;;;;;;;;;;4.91;97.73;99619.72;1701299;83;20886;-84
2021/12/17 09:30:50;;;;;;;;;;;;;;;4.90;97.65;99611.53;1700304;83;20235;-84
2021/12/17 09:33:16;;;;;;;;;;;;;;;4.89;97.55;99614.56;1680804;84;25679;-84
2021/12/17 09:35:44;;;;;;;;;;;;;;;4.87;97.49;99611.16;1681515;84;20475;-84
2021/12/17 09:38:10;;;;;;;;;;;;;;;4.87;97.41;99598.63;1683474;84;25439;-84
2021/12/17 09:40:36;;;;;;;;;;;;;;;4.92;97.39;99591.13;1674853;85;20885;-84
2021/12/17 09:43:02;;;;;;;;;;;;;;;4.98;97.34;99599.17;1674367;84;20267;-84
2021/12/17 09:45:31;;;;;;;;;;;;;;;4.98;97.30;99593.55;1667171;84;24978;-84
2021/12/17 09:47:57;;;;;;;;;;;;;;;4.95;97.25;99591.50;1679064;84;20313;-84
2021/12/17 09:50:24;;;;;;;;;;;;;;;4.92;97.16;99589.83;1667600;85;26191;-84
2021/12/17 09:52:51;;;;;;;;;;;;;;;4.86;97.08;99582.66;1675165;85;24561;-84
2021/12/17 09:55:18;;;;;;;;;;;;;;;4.83;96.98;99585.35;1677327;85;20331;-84
2021/12/17 09:57:49;;;;;;;;;;;;;;;4.85;96.91;99596.10;1677685;85;25089;-84
2021/12/17 10:00:19;;;;;;;;;;;;;;;4.83;96.84;99591.39;1685480;83;22104;-84
2021/12/17 10:02:46;;;;;;;;;;;;;;;4.84;96.79;99581.43;1666455;84;26093;-84
2021/12/17 10:05:14;;;;;;;;;;;;;;;4.82;96.70;99584.94;1677031;84;25172;-85
2021/12/17 10:07:43;;;;;;;;;;;;;;;4.81;96.57;99588.42;1695946;83;20178;-86
2021/12/17 10:10:09;;;;;;;;;;;;;;;4.81;96.51;99581.94;1702694;83;25036;-85
2021/12/17 10:12:39;;;;;;;;;;;;;;;4.83;96.44;99585.35;1693248;84;22033;-84
2021/12/17 10:15:16;;;;;;;;;;;;;;;4.90;96.42;99580.41;1684713;84;26190;-84
2021/12/17 10:18:00;;;;;;;;;;;;;;;4.87;96.35;99582.63;1692320;83;24435;-84
2021/12/17 10:20:27;;;;;;;;;;;;;;;4.83;96.23;99574.98;1691075;83;20223;-85
2021/12/17 10:22:55;;;;;;;;;;;;;;;4.83;96.11;99578.88;1677959;84;24966;-85
2021/12/17 10:25:24;;;;;;;;;;;;;;;4.86;96.05;99581.36;1743893;82;22066;-85
2021/12/17 10:27:53;;;;;;;;;;;;;;;4.91;95.99;99578.22;1739939;81;21300;-85
2021/12/17 10:30:21;;;;;;;;;;;;;;;4.92;95.96;99576.00;1738421;81;24306;-85
2021/12/17 10:32:55;;;;;;;;;;;;;;;4.96;95.89;99584.94;1684564;83;20182;-85
2021/12/17 10:35:26;;;;;;;;;;;;;;;4.96;95.84;99577.64;1685281;84;25197;-85
2021/12/17 10:37:58;;;;;;;;;;;;;;;4.95;95.79;99573.34;1700717;83;22212;-84
2021/12/17 10:40:33;;;;;;;;;;;;;;;4.92;95.69;99579.45;1701670;83;26659;-85
2021/12/17 10:43:04;;;;;;;;;;;;;;;4.92;95.64;99579.45;1746193;81;25208;-85
2021/12/17 10:45:31;;;;;;;;;;;;;;;4.97;95.61;99572.38;1743845;80;20472;-84
2021/12/17 10:50:52;;;;;;;;;;;;;;;5.08;95.61;99575.11;1683119;83;21999;-84
2021/12/17 10:53:19;;;;;;;;;;;;;;;5.13;95.61;99572.78;1723864;81;26140;-85
2021/12/17 10:55:46;;;;;;;;;;;;;;;5.10;95.54;99576.78;1740412;81;24543;-84
2021/12/17 10:58:20;;;;;;;;;;;;;;;5.09;95.45;99571.63;1745817;81;20218;-84
2021/12/17 11:00:51;;;;;;;;;;;;;;;5.09;95.38;99567.73;1745361;81;25021;-85
2021/12/17 11:03:17;;;;;;;;;;;;;;;5.03;95.29;99557.09;1744625;81;21985;-85
2021/12/17 11:05:43;;;;;;;;;;;;;;;5.00;95.22;99564.53;1748519;81;25901;-85
2021/12/17 11:08:28;;;;;;;;;;;;;;;4.99;95.13;99558.08;1740043;81;24290;-84
2021/12/17 11:10:57;;;;;;;;;;;;;;;4.99;95.04;99564.13;1743764;80;20217;-84
2021/12/17 11:13:20;;;;;;;;;;;;;;;4.99;94.95;99559.37;1748560;81;24569;-84
2021/12/17 11:15:46;;;;;;;;;;;;;;;4.99;94.89;99563.27;1743549;80;22624;-84
2021/12/17 11:18:13;;;;;;;;;;;;;;;4.97;94.79;99564.60;1744353;80;26067;-85
2021/12/17 11:20:39;;;;;;;;;;;;;;;5.00;94.73;99571.02;1745991;80;24447;-85
2021/12/17 11:23:09;;;;;;;;;;;;;;;5.00;94.66;99561.08;1744950;81;20185;-86
2021/12/17 11:25:36;;;;;;;;;;;;;;;4.94;94.56;99554.77;1747288;81;25711;-85
2021/12/17 11:28:04;;;;;;;;;;;;;;;4.92;94.47;99556.11;1745028;81;22727;-85
2021/12/17 11:30:32;;;;;;;;;;;;;;;4.91;94.35;99547.92;1738411;81;25689;-85
2021/12/17 11:33:04;;;;;;;;;;;;;;;4.92;94.28;99554.81;1685997;83;25202;-85
2021/12/17 11:35:28;;;;;;;;;;;;;;;4.96;94.22;99553.00;1678139;84;20164;-84
2021/12/17 11:37:59;;;;;;;;;;;;;;;4.98;94.18;99549.45;1744402;81;25150;-84
2021/12/17 11:40:32;;;;;;;;;;;;;;;4.97;94.13;99553.38;1739091;81;22254;-84
2021/12/17 11:43:02;;;;;;;;;;;;;;;4.97;94.05;99557.27;1726114;81;26663;-85
2021/12/17 11:45:29;;;;;;;;;;;;;;;4.96;93.99;99550.41;1746283;81;24432;-84
2021/12/17 11:47:57;;;;;;;;;;;;;;;4.93;93.88;99556.95;1745937;82;20282;-84
2021/12/17 11:50:25;;;;;;;;;;;;;;;4.93;93.79;99551.33;1746578;81;24427;-84
2021/12/17 11:52:54;;;;;;;;;;;;;;;4.89;93.67;99548.88;1744109;81;21978;-84
2021/12/17 11:55:30;;;;;;;;;;;;;;;4.91;93.57;99545.33;1743877;81;26153;-84
2021/12/17 11:58:01;;;;;;;;;;;;;;;4.90;93.46;99551.43;1748244;81;25094;-85
2021/12/17 12:00:32;;;;;;;;;;;;;;;4.91;93.37;99552.28;1744151;82;20309;-85
2021/12/17 12:03:08;;;;;;;;;;;;;;;4.88;93.30;99546.72;1746262;81;25052;-85
2021/12/17 12:05:36;;;;;;;;;;;;;;;4.88;93.27;99553.66;1733432;81;22070;-84
2021/12/17 12:08:24;;;;;;;;;;;;;;;4.88;93.19;99553.66;1742803;81;26656;-86
2021/12/17 12:11:01;;;;;;;;;;;;;;;4.88;93.14;99549.77;1747633;81;25274;-84
2021/12/17 12:13:35;;;;;;;;;;;;;;;4.87;93.08;99554.09;1747073;81;20225;-83
2021/12/17 12:16:03;;;;;;;;;;;;;;;4.88;93.03;99549.77;1732083;81;26271;-84
2021/12/17 12:18:34;;;;;;;;;;;;;;;4.89;92.97;99547.12;1697001;83;21997;-84
2021/12/17 12:21:04;;;;;;;;;;;;;;;4.88;93.00;99548.47;1746127;80;26586;-84
2021/12/17 12:23:30;;;;;;;;;;;;;;;4.84;92.92;99542.53;1746040;81;24535;-83
2021/12/17 12:26:05;;;;;;;;;;;;;;;4.77;92.85;99542.30;1699821;83;20260;-84
2021/12/17 12:28:48;;;;;;;;;;;;;;;4.74;92.77;99540.24;1672912;85;25204;-83
2021/12/17 12:31:16;;;;;;;;;;;;;;;4.73;92.70;99545.02;1744332;82;22709;-84
2021/12/17 12:34:04;;;;;;;;;;;;;;;4.74;92.69;99543.69;1738547;81;26985;-84
2021/12/17 12:36:50;;;;;;;;;;;;;;;4.71;92.65;99539.02;1743842;81;25250;-84
2021/12/17 12:39:17;;;;;;;;;;;;;;;4.69;92.61;99539.05;1743860;81;20359;-84
2021/12/17 12:41:47;;;;;;;;;;;;;;;4.67;92.56;99530.93;1725511;81;25834;-83
2021/12/17 12:44:13;;;;;;;;;;;;;;;4.68;92.49;99531.34;1740685;81;21969;-83
2021/12/17 12:46:51;;;;;;;;;;;;;;;4.66;92.45;99533.97;1747163;81;26133;-83
2021/12/17 12:49:26;;;;;;;;;;;;;;;4.67;92.41;99535.67;1743268;80;24434;-84
2021/12/17 12:51:52;;;;;;;;;;;;;;;4.64;92.36;99529.27;1723125;81;20502;-84
2021/12/17 12:54:23;;;;;;;;;;;;;;;4.60;92.27;99536.73;1739482;80;25188;-83
2021/12/17 12:56:49;;;;;;;;;;;;;;;4.58;92.21;99535.94;1736680;81;22623;-83
2021/12/17 12:59:17;;;;;;;;;;;;;;;4.50;92.14;99530.96;1744153;81;26025;-84
2021/12/17 13:01:43;;;;;;;;;;;;;;;4.51;92.06;99535.70;1742309;81;24541;-83
2021/12/17 13:04:09;;;;;;;;;;;;;;;4.52;92.01;99534.38;1742327;81;20201;-83
2021/12/17 13:06:36;;;;;;;;;;;;;;;4.52;91.96;99537.41;1746797;82;25029;-83
2021/12/17 13:09:04;;;;;;;;;;;;;;;4.50;91.92;99534.00;1746361;81;22064;-83
2021/12/17 13:11:30;;;;;;;;;;;;;;;4.45;91.84;99536.72;1746627;82;25969;-83
2021/12/17 13:13:59;;;;;;;;;;;;;;;4.43;91.76;99540.23;1744805;81;24449;-83
2021/12/17 13:22:01;;;;;;;;;;;;;;;4.36;91.54;99533.54;1743916;81;20149;-84
2021/12/17 13:24:16;;;;;;;;;;;;;;;4.36;91.49;99529.21;1744035;80;26900;-83
2021/12/17 13:26:53;;;;;;;;;;;;;;;4.39;91.48;99529.11;1745443;80;24098;-83
2021/12/17 13:29:25;;;;;;;;;;;;;;;4.40;91.46;99526.08;1743079;81;20225;-83
2021/12/17 13:31:53;;;;;;;;;;;;;;;4.40;91.44;99529.97;1742973;81;24955;-83
2021/12/17 13:34:27;;;;;;;;;;;;;;;4.42;91.43;99530.30;1743995;81;22001;-83
2021/12/17 13:37:01;;;;;;;;;;;;;;;4.42;91.39;99533.38;1724060;82;25996;-83
2021/12/17 13:39:31;;;;;;;;;;;;;;;4.41;91.32;99538.15;1745400;81;24409;-83
2021/12/17 13:42:01;;;;;;;;;;;;;;;4.38;91.25;99527.84;1744563;81;20650;-83
2021/12/17 13:44:29;;;;;;;;;;;;;;;4.36;91.19;99534.39;1697798;83;25003;-83
2021/12/17 13:47:09;;;;;;;;;;;;;;;4.38;91.14;99527.41;1674228;85;21998;-83
2021/12/17 13:49:35;;;;;;;;;;;;;;;4.42;91.11;99524.30;1675992;84;26072;-84
2021/12/17 13:52:02;;;;;;;;;;;;;;;4.40;91.04;99522.19;1677653;84;24441;-83
2021/12/17 13:54:29;;;;;;;;;;;;;;;4.36;90.98;99521.44;1670359;85;20494;-83
2021/12/17 13:56:56;;;;;;;;;;;;;;;4.34;90.88;99521.91;1687720;84;24988;-83
2021/12/17 13:59:30;;;;;;;;;;;;;;;4.30;90.77;99524.19;1683129;84;22170;-83
2021/12/17 14:01:57;;;;;;;;;;;;;;;4.30;90.70;99533.26;1693620;83;26089;-84
2021/12/17 14:04:24;;;;;;;;;;;;;;;4.31;90.66;99538.81;1689739;84;25253;-84
2021/12/17 14:06:53;;;;;;;;;;;;;;;4.30;90.62;99542.77;1689876;84;20190;-82
2021/12/17 14:09:23;;;;;;;;;;;;;;;4.33;90.60;99540.94;1683057;83;25104;-84
2021/12/17 14:11:50;;;;;;;;;;;;;;;4.35;90.57;99541.75;1696462;83;21992;-83
2021/12/17 14:14:24;;;;;;;;;;;;;;;4.37;90.58;99541.25;1696055;82;26050;-84
2021/12/17 14:17:01;;;;;;;;;;;;;;;4.39;90.57;99539.92;1689190;83;24441;-83
2021/12/17 14:19:35;;;;;;;;;;;;;;;4.39;90.56;99538.18;1686967;82;20330;-83
2021/12/17 14:22:01;;;;;;;;;;;;;;;4.40;90.57;99529.52;1687543;83;25044;-84
2021/12/17 14:24:28;;;;;;;;;;;;;;;4.39;90.53;99533.44;1693460;83;20261;-83
2021/12/17 14:26:54;;;;;;;;;;;;;;;4.37;90.50;99541.25;1692930;83;27598;-83
2021/12/17 14:29:20;;;;;;;;;;;;;;;4.36;90.48;99538.72;1697644;84;20419;-83
2021/12/17 14:31:49;;;;;;;;;;;;;;;4.33;90.42;99540.94;1701233;83;20257;-83
2021/12/17 14:34:16;;;;;;;;;;;;;;;4.30;90.38;99540.18;1694300;83;25820;-83
2021/12/17 14:36:42;;;;;;;;;;;;;;;4.33;90.32;99547.41;1687986;82;22124;-84
2021/12/17 14:39:14;;;;;;;;;;;;;;;4.32;90.30;99543.11;1670419;84;26720;-83
2021/12/17 14:41:45;;;;;;;;;;;;;;;4.30;90.24;99550.55;1740114;80;24549;-84
2021/12/17 14:44:20;;;;;;;;;;;;;;;4.32;90.23;99545.70;1744215;81;20456;-84
2021/12/17 14:46:39;;;;;;;;;;;;;;;4.29;90.25;99548.84;1738996;81;25781;-84
2021/12/17 15:05:08;;;;;;;;;;;;;;;4.25;90.14;99541.60;1733316;80;26016;-84
2021/12/17 15:07:34;;;;;;;;;;;;;;;4.21;90.14;99542.11;1740767;81;24644;-83
2021/12/17 15:10:02;;;;;;;;;;;;;;;4.19;90.12;99543.91;1743409;81;20243;-83
2021/12/17 15:15:23;;;;;;;;;;;;;;;4.18;90.06;99539.61;1807305;78;21987;-84
2021/12/17 15:17:50;;;;;;;;;;;;;;;4.20;90.11;99535.66;1814169;78;26091;-84
2021/12/17 15:20:18;;;;;;;;;;;;;;;4.20;90.12;99543.44;1812340;78;24406;-84
2021/12/17 15:22:44;;;;;;;;;;;;;;;4.19;90.13;99542.61;1820173;78;20169;-84
2021/12/17 15:25:12;;;;;;;;;;;;;;;4.17;90.09;99540.50;1779807;79;24209;-84
2021/12/17 15:27:39;;;;;;;;;;;;;;;4.17;90.09;99546.12;1810843;78;21999;-84
2021/12/17 15:30:07;;;;;;;;;;;;;;;4.15;90.06;99549.19;1810274;78;26024;-84
2021/12/17 15:32:36;;;;;;;;;;;;;;;4.15;90.05;99551.77;1813557;78;25236;-84
2021/12/17 15:35:02;;;;;;;;;;;;;;;4.16;90.05;99563.41;1810218;78;20211;-84
2021/12/17 15:37:30;;;;;;;;;;;;;;;4.15;90.06;99564.73;1780232;78;20163;-84
2021/12/17 15:39:57;;;;;;;;;;;;;;;4.16;90.07;99563.84;1812530;78;21725;-84
2021/12/17 15:42:28;;;;;;;;;;;;;;;4.12;90.06;99561.79;1811926;78;26100;-84
2021/12/17 15:44:54;;;;;;;;;;;;;;;4.13;90.06;99547.09;1814450;78;24488;-84
2021/12/17 15:47:20;;;;;;;;;;;;;;;4.14;90.11;99562.61;1817907;78;20168;-84
2021/12/17 15:49:47;;;;;;;;;;;;;;;4.14;90.11;99566.94;1789439;78;24359;-84
2021/12/17 15:52:14;;;;;;;;;;;;;;;4.14;90.11;99569.09;1817105;78;22067;-84
2021/12/17 15:54:39;;;;;;;;;;;;;;;4.15;90.15;99573.80;1778327;80;26139;-84
2021/12/17 15:57:07;;;;;;;;;;;;;;;4.13;90.15;99572.56;1787755;80;20844;-85
2021/12/17 15:59:33;;;;;;;;;;;;;;;4.15;90.19;99567.31;1778540;80;20174;-84
2021/12/17 16:02:03;;;;;;;;;;;;;;;4.12;90.19;99566.97;1790926;80;24444;-84
2021/12/17 16:04:33;;;;;;;;;;;;;;;4.10;90.22;99566.59;1784709;79;21978;-84
2021/12/17 16:07:04;;;;;;;;;;;;;;;4.09;90.22;99553.26;1784366;80;26862;-84